Orbital elements of FENGYUN 1C DEB
| Launched | 9 May 1999 |
| Flight ended | – |
| Launch site | Taiyuan Space Center, PRC |
| Owner | People's Republic of China |
| NORAD ID | 31568 |
| Date fetched |
Epoch osculation |
Inc. [°] |
Ecc. | RA asc node [hr] |
Arg Peri. [°] |
Mean anom [°] |
Mean motion [rev/day] |
Abs. mag |
| Date fetched |
Epoch osculation |
Inc. [°] |
Ecc. | RA asc node [hr] |
Arg Peri. [°] |
Mean anom [°] |
Mean motion [rev/day] |
Abs. mag |
| 2026 May 08 17:57 | 2026 May 04 13:36:31 | 102.0508 | 0.01240 | 3.8495 | 124.5944 | 236.6977 | 14.04740 | – |
| 2026 May 07 17:58 | 2026 May 04 13:36:31 | 102.0508 | 0.01240 | 3.8495 | 124.5944 | 236.6977 | 14.04740 | – |
| 2026 May 06 17:57 | 2026 May 04 13:36:31 | 102.0508 | 0.01240 | 3.8495 | 124.5944 | 236.6977 | 14.04740 | – |
| 2026 May 05 17:57 | 2026 May 04 13:36:31 | 102.0508 | 0.01240 | 3.8495 | 124.5944 | 236.6977 | 14.04740 | – |
| 2026 May 04 17:57 | 2026 Apr 30 01:55:05 | 102.0517 | 0.01228 | 3.4535 | 135.9914 | 236.6977 | 14.04740 | – |
| 2026 May 03 17:57 | 2026 Apr 30 01:55:05 | 102.0517 | 0.01228 | 3.4535 | 135.9914 | 236.6977 | 14.04740 | – |
| 2026 May 02 17:57 | 2026 Apr 30 01:55:05 | 102.0517 | 0.01228 | 3.4535 | 135.9914 | 236.6977 | 14.04740 | – |
| 2026 May 01 17:56 | 2026 Apr 30 01:55:05 | 102.0517 | 0.01228 | 3.4535 | 135.9914 | 236.6977 | 14.04740 | – |
| 2026 Apr 30 17:56 | 2026 Apr 30 01:55:05 | 102.0517 | 0.01228 | 3.4535 | 135.9914 | 236.6977 | 14.04740 | – |
| 2026 Apr 29 17:57 | 2026 Apr 22 12:43:02 | 102.0500 | 0.01214 | 2.7872 | 155.3188 | 236.6977 | 14.04740 | – |
| 2026 Apr 28 17:56 | 2026 Apr 22 12:43:02 | 102.0500 | 0.01214 | 2.7872 | 155.3188 | 236.6977 | 14.04740 | – |
| 2026 Apr 27 17:58 | 2026 Apr 22 12:43:02 | 102.0500 | 0.01214 | 2.7872 | 155.3188 | 236.6977 | 14.04740 | – |
| 2026 Apr 26 17:58 | 2026 Apr 22 12:43:02 | 102.0500 | 0.01214 | 2.7872 | 155.3188 | 236.6977 | 14.04740 | – |
| 2026 Apr 25 17:58 | 2026 Apr 22 12:43:02 | 102.0500 | 0.01214 | 2.7872 | 155.3188 | 236.6977 | 14.04740 | – |
| 2026 Apr 24 17:59 | 2026 Apr 22 12:43:02 | 102.0500 | 0.01214 | 2.7872 | 155.3188 | 236.6977 | 14.04740 | – |
| 2026 Apr 23 17:57 | 2026 Apr 18 12:59:08 | 102.0507 | 0.01208 | 2.4353 | 165.5661 | 236.6977 | 14.04740 | – |
| 2026 Apr 22 17:57 | 2026 Apr 18 12:59:08 | 102.0507 | 0.01208 | 2.4353 | 165.5661 | 236.6977 | 14.04740 | – |
| 2026 Apr 21 17:57 | 2026 Apr 18 12:59:08 | 102.0507 | 0.01208 | 2.4353 | 165.5661 | 236.6977 | 14.04740 | – |
| 2026 Apr 20 17:57 | 2026 Apr 18 12:59:08 | 102.0507 | 0.01208 | 2.4353 | 165.5661 | 236.6977 | 14.04740 | – |
| 2026 Apr 19 17:58 | 2026 Apr 18 12:59:08 | 102.0507 | 0.01208 | 2.4353 | 165.5661 | 236.6977 | 14.04740 | – |
| 2026 Apr 18 17:56 | 2026 Apr 13 01:21:09 | 102.0505 | 0.01202 | 1.9513 | 179.8172 | 236.6977 | 14.04740 | – |
| 2026 Apr 16 17:57 | 2026 Apr 13 01:21:09 | 102.0505 | 0.01202 | 1.9513 | 179.8172 | 236.6977 | 14.04740 | – |
| 2026 Apr 14 17:57 | 2026 Apr 13 01:21:09 | 102.0505 | 0.01202 | 1.9513 | 179.8172 | 236.6977 | 14.04740 | – |
| 2026 Apr 13 17:57 | 2026 Apr 13 01:21:09 | 102.0505 | 0.01202 | 1.9513 | 179.8172 | 236.6977 | 14.04740 | – |
| 2026 Apr 12 17:57 | 2026 Apr 07 12:00:26 | 102.0500 | 0.01203 | 1.4611 | 194.3438 | 236.6977 | 14.04740 | – |
| 2026 Apr 11 17:57 | 2026 Apr 07 12:00:26 | 102.0500 | 0.01203 | 1.4611 | 194.3438 | 236.6977 | 14.04740 | – |